Brownville Junction, ME (04415)

3:00 AM EDT on August 20, 2017 (GMT -0400)
Railroad Ave. Brownville Jct. | | Change Station

Elev 385 ft 45.35 °N, 69.05 °W | Updated 19 seconds ago

Mostly Cloudy
Mostly Cloudy
65.6 °F
Feels Like 65.6 °F
N
0.0
Wind Variable Wind from South

Today
High -- | Low -- °F
--% Chance of Precip.
Yesterday
High -- | Low -- °F
Precip. -- in
Pressure 29.81 in
Visibility 7.0 miles
Clouds Scattered Clouds 4800 ft
Mostly Cloudy 6000 ft
Overcast 8000 ft
Dew Point 65 °F
Humidity 98%
Rainfall 0.00 in
Snow Depth Not available.
5:43 AM 7:34 PM
Waning Crescent, 3% visible
METAR KMLT 200653Z AUTO 00000KT 7SM SCT048 BKN060 OVC080 18/18 A2980 RMK AO2 SLP095 T01830183 TSNO
Pressure 29.81 in
Visibility 7.0 miles
Clouds Scattered Clouds 4800 ft
Mostly Cloudy 6000 ft
Overcast 8000 ft
Dew Point 65 °F
Humidity 98%
Rainfall 0.00 in
Snow Depth Not available.
5:43 AM 7:34 PM
Waning Crescent, 3% visible
METAR KMLT 200653Z AUTO 00000KT 7SM SCT048 BKN060 OVC080 18/18 A2980 RMK AO2 SLP095 T01830183 TSNO

Get Severe Weather Alerts

Thanks for signing up!

Be on the lookout for a verification email in your inbox.

You'll start receiving the daily forecast at 6 AM.

×

10-Day Weather Forecast

Almanac

Astronomy

Aug. 20, 2017 Rise Set
Actual Time
Civil Twilight
Nautical Twilight
Astronomical Twilight
Moon
Length of Visible Light
Length of Day
Tomorrow will be .
, % of the Moon is Illuminated

Today's Extremes

State Highs State Lows

Community

WunderPhotos

Category 6

Welcome to Category 6. This is the collective home for Weather Underground's featured writeups by Dr. Jeff Masters (right), Bob Henson (left), Chris Burt, and other regular contributors.

Nearby

Air Quality

  Air Quality AQ Index Pollutant
Not available.

Snow Depth

Station Depth Elevation

Earthquake Activity

City Distance Mag. Time & Date
Minimum magnitude displayed is 2.5.

Coastal Water Temperatures

Place Temperature

Stations

Nearby Weather Stations

Station Location Temp. Windchill Dew Point Humidity Wind Precip. Elev Updated Type
                   

Watches & Warnings

There are currently no watches in effect.